This is the latest recevied weather packets stored in our database for station/object G6FCI. If no packets are shown the sender has not sent any weather packets the latest 10 day(s).
| Time | Temp. | Humidity | Pressure | Rain* | Wind** | Luminosity | Snow |
|---|---|---|---|---|---|---|---|
| 1777548963 | 20° C | 55% | 1021.5 hPa | 0 mm | - | - | - |
| 1777548423 | 20° C | 54% | 1021.6 hPa | 0 mm | - | - | - |
| 1777545903 | 18.89° C | 61% | 1021.9 hPa | 0 mm | - | - | - |
| 1777543743 | 18.89° C | 72% | 1022.4 hPa | 0 mm | - | - | - |
| 1777542303 | 17.22° C | 78% | 1022.8 hPa | 0 mm | - | - | - |
| 1777536003 | 12.22° C | 74% | 1024.2 hPa | 0 mm | - | - | - |
| 1777533483 | 11.11° C | 73% | 1024.6 hPa | 0 mm | - | - | - |
| 1777532943 | 10.56° C | 73% | 1024.7 hPa | 0 mm | - | - | - |
| 1777530963 | 8.89° C | 74% | 1024.9 hPa | 0 mm | - | - | - |
| 1777530423 | 8.89° C | 74% | 1024.8 hPa | 0 mm | - | - | - |
| 1777529343 | 8.33° C | 74% | 1025 hPa | 0 mm | - | - | - |
| 1777525203 | 7.78° C | 81% | 1025.3 hPa | 0 mm | - | - | - |
| 1777523763 | 7.22° C | 84% | 1025.5 hPa | 0 mm | - | - | - |
| 1777522683 | 7.78° C | 85% | 1025.5 hPa | 0 mm | - | - | - |
| 1777521603 | 7.22° C | 85% | 1025.6 hPa | 0 mm | - | - | - |
| 1777515483 | 7.78° C | 82% | 1025.8 hPa | 0 mm | - | - | - |
| 1777513503 | 7.78° C | 83% | 1026.4 hPa | 0 mm | - | - | - |
| 1777502724 | 10° C | 79% | 1026.8 hPa | 0 mm | - | - | - |
| 1777501083 | 10° C | 75% | 1026.9 hPa | 0 mm | - | - | - |
| 1777498023 | 10.56° C | 74% | 1026.7 hPa | 0 mm | - | - | - |
| 1777490823 | 13.33° C | 63% | 1026.1 hPa | 0 mm | - | - | - |
| 1777489203 | 14.44° C | 60% | 1026.1 hPa | 0 mm | - | - | - |
| 1777485603 | 16.11° C | 51% | 1025.7 hPa | 0 mm | - | - | - |
| 1777485243 | 16.67° C | 52% | 1025.7 hPa | 0 mm | - | - | - |
| 1777482543 | 17.78° C | 52% | 1025.8 hPa | 0 mm | - | - | - |
* Rain latest hour (hover to see other rain measurements)
** Current wind speed in m/s (hover to see current wind gust speed)